Time;durP1;ratioP1;P1;durP2;ratioP2;P2;SDS_P1;SDS_P2;PMS_P1;PMS_P2;Temp;Humidity;BMP_temperature;BMP_pressure;BME280_temperature;BME280_humidity;BME280_pressure;Samples;Min_cycle;Max_cycle;Signal;HPM_P1;HPM_P2
2022/06/15 00:00:37;;;;;;;3.90;2.47;;;;;;;26.15;46.53;99810.53;1774320;79;21045;-62
2022/06/15 00:03:04;;;;;;;4.10;2.65;;;;;;;26.15;46.51;99817.34;1770308;79;21062;-61
2022/06/15 00:05:31;;;;;;;3.60;2.40;;;;;;;26.15;46.52;99815.98;1766586;79;21147;-62
2022/06/15 00:07:57;;;;;;;2.30;2.02;;;;;;;26.15;46.52;99811.89;1780650;79;21030;-62
2022/06/15 00:10:24;;;;;;;3.65;2.47;;;;;;;26.16;46.54;99813.55;1778310;79;21028;-61
2022/06/15 00:12:52;;;;;;;3.62;2.47;;;;;;;26.14;46.53;99811.09;1776040;78;21088;-61
2022/06/15 00:15:19;;;;;;;5.10;2.62;;;;;;;26.15;46.54;99811.34;1768295;79;21466;-62
2022/06/15 00:17:46;;;;;;;2.77;2.25;;;;;;;26.16;46.44;99813.00;1765142;79;21512;-61
2022/06/15 00:20:12;;;;;;;3.15;2.30;;;;;;;26.16;46.39;99813.55;1759778;80;21057;-60
2022/06/15 00:22:41;;;;;;;3.52;2.60;;;;;;;26.15;46.36;99811.34;1752938;80;21075;-60
2022/06/15 00:25:09;;;;;;;4.15;2.72;;;;;;;26.15;46.30;99804.54;1775941;80;21080;-61
2022/06/15 00:27:37;;;;;;;3.58;2.52;;;;;;;26.16;46.27;99812.19;1770150;80;21013;-61
2022/06/15 00:30:06;;;;;;;4.12;2.60;;;;;;;26.16;46.24;99810.83;1760234;80;21145;-61
2022/06/15 00:32:33;;;;;;;3.10;2.60;;;;;;;26.15;46.23;99808.63;1784839;80;21036;-61
2022/06/15 00:35:00;;;;;;;4.97;2.60;;;;;;;26.16;46.22;99802.66;1787155;79;21516;-61
2022/06/15 00:37:26;;;;;;;4.12;2.35;;;;;;;26.16;46.21;99805.38;1759937;80;21044;-61
2022/06/15 00:39:53;;;;;;;2.83;2.15;;;;;;;26.16;46.22;99809.47;1751744;80;21009;-61
2022/06/15 00:42:20;;;;;;;3.30;2.40;;;;;;;26.15;46.20;99802.37;1771048;80;21146;-61
2022/06/15 00:44:49;;;;;;;2.92;2.20;;;;;;;26.16;46.14;99806.74;1755474;80;21065;-61
2022/06/15 00:47:25;;;;;;;3.25;2.33;;;;;;;26.15;46.21;99811.89;1761495;80;21125;-61
2022/06/15 00:50:03;;;;;;;2.80;2.47;;;;;;;26.14;46.20;99807.00;1773571;79;21045;-62
2022/06/15 00:52:51;;;;;;;5.37;2.50;;;;;;;26.14;46.20;99811.09;1759386;80;21033;-61
2022/06/15 00:55:29;;;;;;;3.10;2.27;;;;;;;26.14;46.21;99804.83;1765679;80;21045;-61
2022/06/15 00:57:56;;;;;;;4.35;2.55;;;;;;;26.14;46.21;99804.83;1769133;80;21112;-61
2022/06/15 01:00:23;;;;;;;4.15;2.70;;;;;;;26.14;46.21;99807.00;1753496;80;21741;-62
2022/06/15 01:02:50;;;;;;;2.58;2.37;;;;;;;26.13;46.22;99802.63;1762626;80;21565;-62
2022/06/15 01:05:20;;;;;;;3.12;2.35;;;;;;;26.12;46.21;99802.37;1761050;80;21009;-62
2022/06/15 01:08:33;;;;;;;3.17;2.30;;;;;;;26.12;46.25;99802.37;1763199;80;21114;-62
2022/06/15 01:11:21;;;;;;;3.58;2.98;;;;;;;26.13;46.26;99804.55;1769140;80;21635;-61
2022/06/15 01:14:25;;;;;;;2.40;2.20;;;;;;;26.12;46.24;99807.01;1768830;80;21047;-61
2022/06/15 01:17:04;;;;;;;2.33;2.10;;;;;;;26.11;46.28;99807.53;1770096;80;21029;-61
2022/06/15 01:20:06;;;;;;;2.95;2.10;;;;;;;26.09;46.27;99805.07;1766309;79;21072;-61
2022/06/15 01:23:02;;;;;;;2.35;2.15;;;;;;;26.09;46.30;99812.42;1786463;78;23178;-62
2022/06/15 01:25:44;;;;;;;4.45;2.10;;;;;;;26.08;46.30;99812.17;1781277;79;21092;-60
2022/06/15 01:28:33;;;;;;;3.22;2.58;;;;;;;26.06;46.33;99815.16;1735914;81;21082;-61
2022/06/15 01:31:23;;;;;;;3.12;2.40;;;;;;;26.05;46.33;99816.78;1757835;80;21041;-60
2022/06/15 01:34:14;;;;;;;3.33;2.40;;;;;;;26.04;46.34;99821.41;1795808;78;21016;-60
2022/06/15 01:37:04;;;;;;;2.58;1.90;;;;;;;26.03;46.36;99821.13;1798391;79;21133;-60
2022/06/15 01:40:13;;;;;;;3.70;2.42;;;;;;;26.03;46.36;99817.59;1781718;78;21135;-60
2022/06/15 01:42:46;;;;;;;2.55;2.02;;;;;;;26.02;46.40;99815.42;1753299;80;21520;-61
2022/06/15 01:45:17;;;;;;;2.52;2.30;;;;;;;26.01;46.41;99819.77;1775883;78;21072;-60
2022/06/15 01:47:46;;;;;;;2.67;2.27;;;;;;;26.00;46.42;99823.04;1770424;80;26780;-61
2022/06/15 01:50:22;;;;;;;2.95;2.50;;;;;;;25.99;46.41;99825.47;1761089;80;21128;-61
2022/06/15 01:52:55;;;;;;;3.95;2.40;;;;;;;26.00;46.40;99825.77;1734034;81;21044;-62
2022/06/15 01:55:33;;;;;;;3.10;2.50;;;;;;;25.99;46.37;99832.28;1764533;80;21509;-61
2022/06/15 01:58:05;;;;;;;2.40;2.20;;;;;;;26.00;46.40;99827.64;1777270;78;21010;-60
2022/06/15 02:00:34;;;;;;;3.98;2.30;;;;;;;25.99;46.38;99822.75;1789148;78;21745;-61
2022/06/15 02:03:16;;;;;;;2.72;1.92;;;;;;;26.00;46.38;99827.64;1784681;80;21141;-61
2022/06/15 02:05:54;;;;;;;3.47;2.50;;;;;;;26.00;46.37;99829.00;1770652;80;21006;-62
2022/06/15 02:08:43;;;;;;;2.45;2.20;;;;;;;26.00;46.32;99831.73;1710291;80;21494;-62
2022/06/15 02:11:17;;;;;;;3.70;2.30;;;;;;;25.99;46.31;99827.38;1778187;79;21106;-61
2022/06/15 02:14:11;;;;;;;2.20;2.00;;;;;;;25.99;46.35;99834.19;1772741;78;21020;-61
2022/06/15 02:16:51;;;;;;;3.17;2.37;;;;;;;25.98;46.32;99834.74;1786510;79;21773;-61
2022/06/15 02:19:25;;;;;;;3.65;2.33;;;;;;;25.98;46.35;99836.10;1767233;80;21360;-61
2022/06/15 02:21:52;;;;;;;2.58;2.35;;;;;;;25.98;46.35;99841.55;1747721;80;21049;-61
2022/06/15 02:24:19;;;;;;;2.15;1.92;;;;;;;25.97;46.35;99841.25;1762970;80;21018;-60
2022/06/15 02:26:46;;;;;;;2.25;2.05;;;;;;;25.97;46.30;99844.53;1765090;79;21059;-61
2022/06/15 02:29:23;;;;;;;2.40;2.20;;;;;;;25.97;46.32;99849.42;1773200;79;21136;-61
2022/06/15 02:31:56;;;;;;;2.75;2.55;;;;;;;25.96;46.30;99842.36;1752286;80;21117;-61
2022/06/15 02:34:24;;;;;;;3.52;2.47;;;;;;;25.97;46.33;99852.69;1751756;79;21528;-61
2022/06/15 02:36:51;;;;;;;2.80;2.20;;;;;;;25.96;46.34;99853.24;1761120;79;21002;-61
2022/06/15 02:39:19;;;;;;;3.08;2.20;;;;;;;25.96;46.30;99851.05;1772414;80;21080;-61
2022/06/15 02:41:49;;;;;;;3.22;2.27;;;;;;;25.96;46.27;99856.48;1769190;79;21310;-61
2022/06/15 02:44:17;;;;;;;2.40;2.20;;;;;;;25.97;46.27;99855.41;1726544;79;21753;-61
2022/06/15 02:46:47;;;;;;;2.87;2.20;;;;;;;25.95;46.28;99852.95;1769459;79;21539;-60
2022/06/15 02:49:14;;;;;;;3.25;2.70;;;;;;;25.96;46.27;99849.16;1768707;80;21021;-61
2022/06/15 02:51:56;;;;;;;4.05;2.58;;;;;;;25.95;46.30;99851.59;1774990;80;21032;-61
2022/06/15 02:54:41;;;;;;;2.70;2.40;;;;;;;25.95;46.32;99854.31;1747129;80;21098;-62
2022/06/15 02:57:12;;;;;;;3.92;2.85;;;;;;;25.95;46.32;99861.12;1756453;79;22113;-60
2022/06/15 02:59:39;;;;;;;3.30;2.25;;;;;;;25.94;46.33;99856.78;1755501;79;21013;-61
2022/06/15 03:02:06;;;;;;;5.67;2.33;;;;;;;25.95;46.34;99858.39;1777907;80;21069;-61
2022/06/15 03:04:34;;;;;;;2.40;2.20;;;;;;;25.94;46.37;99855.41;1775133;80;21053;-60
2022/06/15 03:07:01;;;;;;;2.98;2.40;;;;;;;25.93;46.37;99856.48;1779536;80;21155;-61
2022/06/15 03:09:29;;;;;;;2.62;2.35;;;;;;;25.94;46.33;99856.78;1775952;79;21018;-61
2022/06/15 03:11:56;;;;;;;3.20;2.47;;;;;;;25.94;46.35;99856.78;1778223;80;21593;-60
2022/06/15 03:14:38;;;;;;;3.13;2.53;;;;;;;25.94;46.37;99862.74;1778663;80;21101;-61
2022/06/15 03:17:06;;;;;;;3.72;2.60;;;;;;;25.94;46.38;99862.22;1773467;78;21020;-61
2022/06/15 03:19:34;;;;;;;2.50;2.25;;;;;;;25.93;46.38;99859.21;1784196;78;22056;-61
2022/06/15 03:22:03;;;;;;;3.10;2.22;;;;;;;25.92;46.38;99861.64;1786233;78;21555;-60
2022/06/15 03:24:33;;;;;;;2.20;2.00;;;;;;;25.92;46.42;99865.72;1764674;80;21002;-63
2022/06/15 03:27:00;;;;;;;2.50;2.25;;;;;;;25.92;46.38;99865.72;1759198;80;21068;-61
2022/06/15 03:29:30;;;;;;;4.15;2.20;;;;;;;25.90;46.36;99865.98;1748055;80;21513;-60
2022/06/15 03:31:59;;;;;;;2.60;2.40;;;;;;;25.92;46.41;99863.55;1787141;80;22094;-61
2022/06/15 03:34:26;;;;;;;2.85;2.47;;;;;;;25.92;46.39;99870.36;1761546;78;21010;-61
2022/06/15 03:36:53;;;;;;;3.15;2.52;;;;;;;25.92;46.36;99868.99;1768895;78;21069;-61
2022/06/15 03:39:20;;;;;;;2.98;2.67;;;;;;;25.91;46.36;99870.91;1767890;79;21085;-62
2022/06/15 03:41:48;;;;;;;3.08;2.08;;;;;;;25.90;46.39;99874.14;1751356;79;21053;-62
2022/06/15 03:44:15;;;;;;;3.15;2.47;;;;;;;25.90;46.41;99874.14;1769659;78;21158;-61
2022/06/15 03:46:42;;;;;;;3.58;2.20;;;;;;;25.89;46.39;99880.66;1769555;79;20981;-60
2022/06/15 03:49:14;;;;;;;3.55;2.58;;;;;;;25.90;46.39;99880.11;1775299;78;21019;-61
2022/06/15 03:51:42;;;;;;;3.33;2.33;;;;;;;25.90;46.41;99880.11;1770834;78;21009;-61
2022/06/15 03:54:09;;;;;;;2.47;2.08;;;;;;;25.91;46.42;99887.23;1756824;79;20993;-62
2022/06/15 03:56:44;;;;;;;2.60;2.15;;;;;;;25.90;46.45;99890.47;1753010;79;21766;-61
2022/06/15 03:59:13;;;;;;;3.27;2.40;;;;;;;25.90;46.45;99897.28;1772631;78;21021;-61
2022/06/15 04:01:41;;;;;;;2.77;2.37;;;;;;;25.90;46.52;99893.72;1758278;79;21025;-61
2022/06/15 04:04:09;;;;;;;3.10;2.60;;;;;;;25.89;46.47;99898.34;1764993;80;21077;-62
2022/06/15 04:06:38;;;;;;;3.65;2.40;;;;;;;25.90;46.51;99903.24;1778013;79;21053;-61
2022/06/15 04:09:05;;;;;;;4.25;2.50;;;;;;;25.89;46.48;99903.79;1775538;79;21156;-61
2022/06/15 04:14:23;;;;;;;2.95;2.12;;;;;;;25.88;46.48;99902.17;1766451;79;21096;-61
2022/06/15 04:16:55;;;;;;;3.15;2.85;;;;;;;25.88;46.50;99908.97;1756811;79;21069;-61
2022/06/15 04:19:30;;;;;;;3.27;2.42;;;;;;;25.88;46.53;99910.85;1751706;80;21062;-61
2022/06/15 04:21:57;;;;;;;3.58;2.77;;;;;;;25.87;46.53;99908.68;1740672;81;21057;-61
2022/06/15 04:24:28;;;;;;;3.80;2.92;;;;;;;25.88;46.53;99908.13;1751758;79;21036;-62
2022/06/15 04:26:55;;;;;;;3.75;2.85;;;;;;;25.88;46.55;99914.94;1754569;80;21545;-62
2022/06/15 04:29:22;;;;;;;3.30;2.80;;;;;;;25.87;46.50;99915.48;1773754;79;21105;-61
2022/06/15 04:31:51;;;;;;;3.27;2.50;;;;;;;25.88;46.54;99920.38;1777285;79;21062;-61
2022/06/15 04:34:18;;;;;;;3.02;2.83;;;;;;;25.87;46.53;99918.75;1782692;79;21208;-61
2022/06/15 04:36:45;;;;;;;3.58;3.00;;;;;;;25.87;46.52;99920.93;1764837;79;21099;-61
2022/06/15 04:39:13;;;;;;;3.15;2.77;;;;;;;25.88;46.53;99920.38;1743269;79;21076;-62
2022/06/15 04:41:42;;;;;;;4.20;3.05;;;;;;;25.88;46.52;99922.58;1773389;79;21202;-61
2022/06/15 04:44:10;;;;;;;4.62;3.25;;;;;;;25.88;46.54;99913.58;1777741;80;21038;-62
2022/06/15 04:46:38;;;;;;;3.27;2.98;;;;;;;25.88;46.53;99919.86;1779558;79;21525;-62
2022/06/15 04:49:08;;;;;;;4.17;3.10;;;;;;;25.89;46.55;99930.19;1777444;80;21006;-61
2022/06/15 04:51:41;;;;;;;3.40;3.10;;;;;;;25.89;46.54;99927.47;1772636;79;21037;-61
2022/06/15 04:54:10;;;;;;;4.70;3.77;;;;;;;25.89;46.57;99926.11;1773441;80;21030;-61
2022/06/15 04:56:38;;;;;;;3.45;2.77;;;;;;;25.90;46.54;99927.22;1777219;79;21021;-61
2022/06/15 04:59:07;;;;;;;3.83;3.40;;;;;;;25.89;46.57;99929.64;1764480;79;22197;-62
2022/06/15 05:01:34;;;;;;;4.25;3.15;;;;;;;25.90;46.58;99927.73;1772737;79;21016;-62
2022/06/15 05:04:01;;;;;;;3.50;3.05;;;;;;;25.91;46.58;99934.86;1759212;79;21050;-62
2022/06/15 05:06:33;;;;;;;4.58;3.58;;;;;;;25.90;46.58;99931.30;1775957;79;21068;-61
2022/06/15 05:09:04;;;;;;;3.50;3.20;;;;;;;25.90;46.58;99934.02;1777282;79;21006;-63
2022/06/15 05:11:32;;;;;;;3.50;3.08;;;;;;;25.92;46.72;99937.03;1783497;80;21490;-63
2022/06/15 05:14:00;;;;;;;3.22;2.90;;;;;;;25.92;46.72;99937.84;1782435;80;21549;-63
2022/06/15 05:16:27;;;;;;;3.75;3.20;;;;;;;25.92;46.76;99932.40;1780591;80;21019;-64
2022/06/15 05:18:54;;;;;;;3.72;3.22;;;;;;;25.94;46.80;99927.53;1779750;80;21465;-63
2022/06/15 05:21:23;;;;;;;6.37;3.27;;;;;;;25.94;46.73;99931.63;1763334;81;21445;-60
2022/06/15 05:23:50;;;;;;;5.35;3.42;;;;;;;25.96;46.69;99935.41;1778249;80;21491;-62
2022/06/15 05:26:24;;;;;;;8.20;3.30;;;;;;;25.96;46.73;99930.81;1776626;80;21108;-64
2022/06/15 05:28:51;;;;;;;4.67;2.90;;;;;;;25.98;46.68;99927.80;1766484;79;21080;-68
2022/06/15 05:31:21;;;;;;;5.58;3.17;;;;;;;25.97;45.52;99934.34;1767615;79;21088;-69
2022/06/15 05:33:55;;;;;;;5.50;3.00;;;;;;;25.87;44.43;99933.72;1753818;80;21049;-67
2022/06/15 05:36:29;;;;;;;4.80;3.15;;;;;;;25.72;44.29;99943.17;1759301;80;21791;-70
2022/06/15 05:38:55;;;;;;;4.60;2.90;;;;;;;25.55;44.33;99940.06;1751922;80;21291;-70
2022/06/15 05:41:23;;;;;;;5.30;2.80;;;;;;;25.39;44.43;99939.15;1772871;80;21022;-69
2022/06/15 05:43:51;;;;;;;3.80;2.52;;;;;;;25.25;44.53;99937.97;1768867;80;21129;-68
2022/06/15 05:46:23;;;;;;;5.45;2.52;;;;;;;25.11;44.81;99941.61;1759170;79;21080;-67
2022/06/15 05:48:52;;;;;;;3.65;2.60;;;;;;;25.00;45.02;99938.02;1766130;80;23080;-62
2022/06/15 05:51:20;;;;;;;5.72;3.10;;;;;;;24.89;45.06;99935.73;1770622;80;21509;-67
2022/06/15 05:53:47;;;;;;;8.08;2.85;;;;;;;24.82;44.90;99939.73;1764056;79;20998;-70
2022/06/15 05:56:15;;;;;;;3.70;2.33;;;;;;;24.75;45.48;99941.86;1770370;79;21136;-63
2022/06/15 05:58:43;;;;;;;4.17;2.37;;;;;;;24.69;45.38;99942.34;1770955;79;21065;-62
2022/06/15 06:01:21;;;;;;;5.12;2.58;;;;;;;24.65;45.51;99941.22;1768659;79;21291;-61
2022/06/15 06:03:47;;;;;;;4.17;2.60;;;;;;;24.62;45.84;99948.52;1773814;78;21048;-64
2022/06/15 06:06:13;;;;;;;5.95;2.62;;;;;;;24.60;45.64;99947.95;1768649;78;22631;-69
2022/06/15 06:08:40;;;;;;;6.55;2.45;;;;;;;24.56;45.48;99951.72;1771498;79;21072;-60
2022/06/15 06:11:07;;;;;;;4.37;2.55;;;;;;;24.55;45.54;99939.73;1765477;79;21223;-65
2022/06/15 06:13:33;;;;;;;7.87;3.50;;;;;;;24.54;45.04;99952.51;1776464;78;21128;-59
2022/06/15 06:16:01;;;;;;;6.62;3.40;;;;;;;24.48;45.22;99954.31;1773608;79;20983;-59
2022/06/15 06:18:28;;;;;;;6.35;3.62;;;;;;;24.46;45.53;99946.15;1777065;78;21020;-59
2022/06/15 06:20:55;;;;;;;11.80;4.10;;;;;;;24.48;45.53;99939.92;1773862;78;21052;-57
2022/06/15 06:23:22;;;;;;;10.43;4.10;;;;;;;24.51;45.91;99941.63;1753673;78;20999;-57
2022/06/15 06:25:50;;;;;;;11.03;4.40;;;;;;;24.54;45.83;99941.64;1763067;80;21138;-57
2022/06/15 06:28:31;;;;;;;6.12;3.98;;;;;;;24.57;46.51;99937.59;1759956;78;21055;-56
2022/06/15 06:31:00;;;;;;;6.28;3.47;;;;;;;24.64;46.14;99945.81;1771207;80;21632;-56
2022/06/15 06:33:30;;;;;;;8.65;3.67;;;;;;;24.70;45.77;99946.14;1775270;78;21075;-58
2022/06/15 06:35:59;;;;;;;10.98;3.52;;;;;;;24.73;45.72;99945.64;1753740;80;21028;-58
2022/06/15 06:38:26;;;;;;;6.28;3.22;;;;;;;24.78;45.83;99949.48;1773878;80;21924;-57
2022/06/15 06:40:53;;;;;;;6.90;3.22;;;;;;;24.82;45.92;99947.37;1754451;78;21000;-59
2022/06/15 06:43:20;;;;;;;5.42;3.42;;;;;;;24.86;45.71;99948.48;1736684;80;21001;-58
2022/06/15 06:45:48;;;;;;;7.72;3.35;;;;;;;24.88;45.53;99951.77;1777410;80;21335;-58
2022/06/15 06:48:16;;;;;;;5.22;2.98;;;;;;;24.89;45.36;99947.14;1747220;79;21106;-57
2022/06/15 06:50:43;;;;;;;5.58;3.42;;;;;;;24.90;45.34;99947.44;1757938;80;21673;-57
2022/06/15 06:53:12;;;;;;;4.80;3.62;;;;;;;24.92;45.41;99952.89;1752025;78;21519;-57
2022/06/15 06:55:39;;;;;;;5.42;2.62;;;;;;;24.93;45.11;99947.72;1767001;78;21559;-58
2022/06/15 06:58:06;;;;;;;5.53;2.70;;;;;;;24.93;44.73;99945.55;1764090;80;21084;-57
2022/06/15 07:00:35;;;;;;;4.60;3.00;;;;;;;24.94;44.83;99947.20;1760703;80;21055;-57
2022/06/15 07:03:02;;;;;;;5.67;2.72;;;;;;;24.96;44.93;99948.30;1759147;80;21133;-58
2022/06/15 07:05:29;;;;;;;5.60;3.15;;;;;;;24.97;44.74;99947.22;1773821;78;21020;-57
2022/06/15 07:07:56;;;;;;;6.58;3.10;;;;;;;24.99;44.72;99947.23;1733839;80;21014;-57
2022/06/15 07:10:25;;;;;;;5.92;2.70;;;;;;;25.02;44.67;99948.63;1751554;78;20989;-57
2022/06/15 07:12:51;;;;;;;7.60;2.67;;;;;;;25.05;44.71;99944.02;1764536;79;21032;-58
2022/06/15 07:15:20;;;;;;;4.58;2.70;;;;;;;25.08;44.83;99942.15;1769751;80;21092;-57
2022/06/15 07:17:47;;;;;;;5.12;2.77;;;;;;;25.11;44.53;99951.97;1773520;80;20989;-58
2022/06/15 07:20:13;;;;;;;7.50;2.75;;;;;;;25.10;43.92;99945.42;1756727;80;21552;-58
2022/06/15 07:22:40;;;;;;;3.47;2.72;;;;;;;25.09;44.05;99951.92;1748496;80;21089;-58
2022/06/15 07:25:09;;;;;;;6.92;2.40;;;;;;;25.07;43.66;99944.06;1793032;79;20994;-57
2022/06/15 07:27:37;;;;;;;4.47;2.35;;;;;;;25.05;43.41;99949.45;1794168;79;21933;-57
2022/06/15 07:30:06;;;;;;;4.83;2.37;;;;;;;25.03;43.37;99949.70;1795285;78;21291;-58
2022/06/15 07:32:34;;;;;;;5.75;2.30;;;;;;;25.01;43.26;99949.69;1783696;80;21031;-57
2022/06/15 07:35:03;;;;;;;3.60;2.33;;;;;;;24.97;42.81;99949.93;1791792;80;21496;-58
2022/06/15 07:38:19;;;;;;;2.85;2.25;;;;;;;24.96;42.75;99941.52;1815393;77;22663;-58
2022/06/15 07:40:50;;;;;;;2.83;2.27;;;;;;;24.92;43.21;99946.64;1760219;80;20996;-58
2022/06/15 07:43:17;;;;;;;5.92;2.12;;;;;;;24.93;43.61;99944.19;1787743;80;21312;-58
2022/06/15 07:45:43;;;;;;;3.52;2.52;;;;;;;24.93;42.88;99949.08;1791951;80;21021;-57
2022/06/15 07:50:57;;;;;;;3.87;2.20;;;;;;;24.92;42.49;99944.73;1792019;80;20958;-58
2022/06/15 07:53:23;;;;;;;4.30;2.50;;;;;;;24.91;42.73;99944.44;1792031;80;22143;-58
2022/06/15 07:55:52;;;;;;;3.00;2.10;;;;;;;24.94;43.15;99944.48;1790453;79;21124;-58
2022/06/15 07:58:18;;;;;;;3.80;2.20;;;;;;;24.97;43.21;99947.22;1790590;78;21010;-58
2022/06/15 08:00:47;;;;;;;4.80;2.33;;;;;;;24.98;42.72;99944.79;1789841;78;21008;-56
2022/06/15 08:03:15;;;;;;;4.12;2.00;;;;;;;25.00;43.46;99939.91;1772203;80;21520;-57
2022/06/15 08:05:46;;;;;;;3.20;2.22;;;;;;;25.04;43.79;99942.39;1780199;80;21569;-58
2022/06/15 08:08:17;;;;;;;3.60;2.17;;;;;;;25.06;43.65;99934.25;1796883;79;21463;-57
2022/06/15 08:10:45;;;;;;;4.78;2.40;;;;;;;25.10;43.27;99941.34;1790110;79;21057;-58
2022/06/15 08:13:13;;;;;;;2.77;2.15;;;;;;;25.09;42.60;99937.82;1793938;79;21025;-56
2022/06/15 08:15:41;;;;;;;5.17;2.52;;;;;;;25.08;42.31;99931.28;1795712;79;21037;-57
2022/06/15 08:18:17;;;;;;;5.50;2.33;;;;;;;25.08;42.38;99935.36;1792100;79;21018;-57
2022/06/15 08:20:54;;;;;;;4.28;2.27;;;;;;;25.08;42.51;99942.96;1790187;80;21140;-57
2022/06/15 08:23:22;;;;;;;2.90;2.05;;;;;;;25.08;42.35;99937.53;1788520;79;21037;-56
2022/06/15 08:25:52;;;;;;;3.95;2.15;;;;;;;25.08;42.18;99939.44;1774133;80;21533;-56
2022/06/15 08:28:22;;;;;;;3.52;2.60;;;;;;;25.06;42.05;99932.89;1792049;79;21065;-57
2022/06/15 08:30:49;;;;;;;2.98;1.90;;;;;;;25.06;42.29;99932.08;1791973;80;21494;-56
2022/06/15 08:33:16;;;;;;;3.02;2.10;;;;;;;25.07;42.80;99928.27;1762669;79;21055;-56
2022/06/15 08:35:42;;;;;;;4.05;2.27;;;;;;;25.09;43.01;99931.55;1788668;78;21025;-56
2022/06/15 08:38:12;;;;;;;7.10;2.47;;;;;;;25.14;42.95;99938.94;1779151;79;20994;-57
2022/06/15 08:40:59;;;;;;;3.35;2.33;;;;;;;25.15;42.75;99935.97;1781264;80;21517;-57
2022/06/15 08:43:37;;;;;;;3.72;2.35;;;;;;;25.18;43.05;99935.42;1797411;78;21025;-57
2022/06/15 08:46:19;;;;;;;3.42;2.52;;;;;;;25.22;42.49;99931.66;1790813;78;21144;-57
2022/06/15 08:49:10;;;;;;;3.15;2.30;;;;;;;25.21;42.09;99930.03;1800469;79;21015;-57
2022/06/15 08:51:41;;;;;;;2.67;2.02;;;;;;;25.21;42.23;99934.11;1797533;78;21031;-57
2022/06/15 08:54:17;;;;;;;3.02;1.95;;;;;;;25.21;42.13;99931.39;1775944;78;21532;-57
2022/06/15 08:56:43;;;;;;;;;;;;;;;25.21;41.88;99929.48;1778184;80;21090;-57
2022/06/15 08:59:44;;;;;;;2.62;1.72;;;;;;;25.21;41.92;99935.47;1791604;80;21544;-57
2022/06/15 09:02:48;;;;;;;2.58;1.87;;;;;;;25.19;42.02;99939.80;1764998;79;21611;-57
2022/06/15 09:05:41;;;;;;;2.30;1.90;;;;;;;25.20;41.79;99937.89;1794375;78;21049;-57
2022/06/15 09:08:41;;;;;;;2.17;1.70;;;;;;;25.20;42.13;99933.27;1791210;78;21026;-57
2022/06/15 09:11:13;;;;;;;2.45;1.90;;;;;;;25.21;41.36;99930.03;1764639;79;21056;-57
2022/06/15 09:14:08;;;;;;;3.22;1.70;;;;;;;25.20;41.54;99929.73;1771568;80;21081;-56
2022/06/15 09:17:00;;;;;;;3.30;1.82;;;;;;;25.18;41.02;99928.62;1790222;80;20991;-57
2022/06/15 09:19:38;;;;;;;3.17;1.72;;;;;;;25.17;41.68;99927.01;1791574;79;21041;-57
2022/06/15 09:22:19;;;;;;;2.77;1.87;;;;;;;25.20;41.98;99918.86;1791568;80;21076;-56
2022/06/15 09:24:50;;;;;;;3.05;1.80;;;;;;;25.22;41.69;99926.22;1766575;79;21275;-57
2022/06/15 09:27:36;;;;;;;3.52;1.70;;;;;;;25.22;41.04;99922.14;1784549;80;21117;-57
2022/06/15 09:30:11;;;;;;;4.35;1.92;;;;;;;25.21;40.87;99919.16;1784979;79;20974;-57
2022/06/15 09:32:44;;;;;;;3.17;1.75;;;;;;;25.19;41.21;99928.92;1810677;78;21521;-57
2022/06/15 09:35:17;;;;;;;3.02;1.70;;;;;;;25.20;40.99;99922.39;1795695;78;21570;-57
2022/06/15 09:37:51;;;;;;;1.95;1.47;;;;;;;25.21;41.37;99925.41;1804452;78;21025;-57
2022/06/15 09:40:19;;;;;;;2.50;1.70;;;;;;;25.25;41.22;99921.66;1775997;78;21128;-57
2022/06/15 09:43:10;;;;;;;2.95;1.80;;;;;;;25.28;41.42;99921.12;1775112;80;21202;-57
2022/06/15 09:45:53;;;;;;;3.25;1.60;;;;;;;25.30;40.61;99913.00;1781241;80;21065;-57
2022/06/15 09:48:49;;;;;;;2.55;1.60;;;;;;;25.33;40.74;99920.36;1781077;80;21021;-57
2022/06/15 09:51:58;;;;;;;3.20;1.60;;;;;;;25.34;40.82;99918.70;1790597;80;21037;-57
2022/06/15 09:54:53;;;;;;;1.85;1.67;;;;;;;25.36;40.64;99919.27;1786814;79;21121;-57
2022/06/15 09:57:20;;;;;;;2.47;2.00;;;;;;;25.38;40.78;99917.66;1784676;80;21024;-58
2022/06/15 09:59:46;;;;;;;5.45;2.33;;;;;;;25.40;41.05;99921.77;1770359;80;20986;-57
2022/06/15 10:02:19;;;;;;;1.82;1.50;;;;;;;25.42;40.71;99927.77;1791345;80;22117;-57
2022/06/15 10:04:45;;;;;;;2.25;1.70;;;;;;;25.45;40.72;99919.61;1789016;79;21093;-57
2022/06/15 10:07:28;;;;;;;2.47;1.60;;;;;;;25.46;40.58;99923.44;1797771;79;21120;-57
2022/06/15 10:10:00;;;;;;;3.80;2.20;;;;;;;25.47;40.86;99910.09;1790553;80;21021;-57
2022/06/15 10:12:56;;;;;;;1.87;1.60;;;;;;;25.51;41.00;99911.75;1788674;80;21559;-57
2022/06/15 10:15:37;;;;;;;2.80;1.98;;;;;;;25.54;40.96;99914.52;1770989;80;20998;-57
2022/06/15 10:18:32;;;;;;;1.75;1.60;;;;;;;25.54;40.74;99919.95;1779811;79;21069;-57
2022/06/15 10:21:11;;;;;;;3.10;1.77;;;;;;;25.53;40.81;99916.39;1790453;80;21155;-57
2022/06/15 10:23:52;;;;;;;2.20;1.50;;;;;;;25.58;40.85;99913.70;1779099;80;21024;-57
2022/06/15 10:26:39;;;;;;;1.57;1.47;;;;;;;25.62;40.41;99905.84;1789536;80;20971;-57
2022/06/15 10:29:23;;;;;;;1.95;1.70;;;;;;;25.65;40.54;99902.58;1791139;80;21712;-57
2022/06/15 10:32:08;;;;;;;3.98;1.50;;;;;;;25.69;40.44;99901.80;1785653;80;21078;-57
2022/06/15 10:34:48;;;;;;;4.30;1.72;;;;;;;25.74;40.29;99906.99;1762651;79;21132;-58
2022/06/15 10:37:47;;;;;;;2.17;1.80;;;;;;;25.75;39.61;99914.05;1797786;78;21053;-57
2022/06/15 10:40:32;;;;;;;3.42;1.92;;;;;;;25.76;39.71;99912.98;1795976;79;21029;-58
2022/06/15 10:43:09;;;;;;;3.98;1.70;;;;;;;25.76;39.76;99907.55;1784997;79;21053;-58
2022/06/15 10:45:43;;;;;;;4.70;1.52;;;;;;;25.77;40.84;99911.37;1790719;78;21036;-61
2022/06/15 10:48:16;;;;;;;3.92;1.80;;;;;;;25.79;41.52;99902.95;1770946;79;21214;-60
2022/06/15 10:51:08;;;;;;;4.87;1.80;;;;;;;25.80;40.69;99903.20;1792402;79;20974;-63
2022/06/15 10:53:49;;;;;;;4.20;1.90;;;;;;;25.80;40.51;99907.28;1793134;79;21053;-61
2022/06/15 11:02:37;;;;;;;2.75;1.70;;;;;;;25.67;39.82;99899.05;1796193;79;21449;-65
2022/06/15 11:05:11;;;;;;;;;;;;;;;25.64;39.62;99894.97;1794509;78;21057;-60
2022/06/15 11:07:48;;;;;;;2.52;1.55;;;;;;;25.60;40.41;99895.22;1788694;79;20190;-60
2022/06/15 11:10:40;;;;;;;3.02;1.80;;;;;;;25.61;41.06;99890.59;1776622;79;20992;-59
2022/06/15 11:13:24;;;;;;;2.50;1.67;;;;;;;25.64;41.50;99886.80;1780129;79;21024;-59
2022/06/15 11:18:46;;;;;;;2.35;1.90;;;;;;;25.75;42.40;99892.28;1783054;79;21047;-59
2022/06/15 11:21:21;;;;;;;6.08;2.10;;;;;;;25.80;42.50;99887.69;1792752;78;21548;-59
2022/06/15 11:24:25;;;;;;;2.08;1.70;;;;;;;25.87;41.65;99884.74;1789837;78;21096;-59
2022/06/15 11:27:08;;;;;;;3.33;2.15;;;;;;;25.94;40.95;99886.71;1790126;79;21553;-60
2022/06/15 11:29:57;;;;;;;2.65;1.90;;;;;;;26.02;40.35;99875.83;1767198;78;21802;-59
2022/06/15 11:32:51;;;;;;;3.72;1.92;;;;;;;26.10;39.77;99878.05;1786108;79;21013;-60
2022/06/15 11:35:54;;;;;;;4.28;1.72;;;;;;;26.18;39.03;99875.35;1726182;82;21069;-60
2022/06/15 11:38:49;;;;;;;1.95;1.72;;;;;;;26.25;39.16;99874.53;1643938;85;21076;-59
2022/06/15 11:41:27;;;;;;;1.72;1.62;;;;;;;26.33;39.50;99879.47;1768182;78;21005;-59
2022/06/15 11:43:56;;;;;;;2.05;1.85;;;;;;;26.40;39.52;99878.64;1794385;79;21136;-61
2022/06/15 11:46:38;;;;;;;1.77;1.62;;;;;;;26.46;39.66;99870.78;1780803;79;21060;-59
2022/06/15 11:49:29;;;;;;;2.60;1.72;;;;;;;26.55;39.69;99863.43;1783927;78;21028;-60
2022/06/15 11:52:13;;;;;;;2.52;1.80;;;;;;;26.62;39.74;99868.91;1783266;79;21025;-59
2022/06/15 11:55:20;;;;;;;1.98;1.40;;;;;;;26.71;39.84;99873.27;1791383;78;21061;-59
2022/06/15 11:58:29;;;;;;;2.17;1.72;;;;;;;26.78;39.48;99869.73;1787449;78;21882;-60
2022/06/15 12:01:31;;;;;;;1.60;1.50;;;;;;;26.88;39.12;99861.55;1794719;79;20975;-60
2022/06/15 12:04:40;;;;;;;4.35;1.82;;;;;;;26.94;38.72;99862.36;1780953;79;21095;-60
2022/06/15 12:07:48;;;;;;;3.60;2.05;;;;;;;27.02;38.92;99877.34;1784528;79;21040;-60
2022/06/15 12:10:36;;;;;;;3.10;1.60;;;;;;;27.06;38.87;99871.09;1775923;79;21516;-60
2022/06/15 12:13:14;;;;;;;2.30;1.77;;;;;;;27.09;37.77;99868.35;1790022;79;21738;-60
2022/06/15 12:15:59;;;;;;;2.33;1.70;;;;;;;27.13;37.46;99871.35;1787700;78;21041;-59
2022/06/15 12:18:59;;;;;;;2.55;1.85;;;;;;;27.18;37.50;99876.25;1794150;78;21209;-58
2022/06/15 12:21:44;;;;;;;3.22;1.90;;;;;;;27.22;37.30;99871.87;1777014;78;21053;-59
2022/06/15 12:24:34;;;;;;;5.25;2.02;;;;;;;27.29;37.00;99868.88;1787371;78;21099;-59